Time;durP1;ratioP1;P1;durP2;ratioP2;P2;SDS_P1;SDS_P2;PMS_P1;PMS_P2;Temp;Humidity;BMP_temperature;BMP_pressure;BME280_temperature;BME280_humidity;BME280_pressure;Samples;Min_cycle;Max_cycle;Signal;HPM_P1;HPM_P2
2021/05/12 00:00:33;;;;;;;4.80;2.00;;;;;;;16.94;35.17;99888.02;104229;1096;78071;-67
2021/05/12 00:02:49;;;;;;;5.00;2.50;;;;;;;16.89;35.30;99891.45;104298;1096;78644;-68
2021/05/12 00:04:55;;;;;;;7.00;2.30;;;;;;;16.90;35.27;99887.67;104306;1095;79149;-68
2021/05/12 00:07:01;;;;;;;5.20;2.40;;;;;;;16.88;35.35;99892.55;104272;1096;79258;-68
2021/05/12 00:09:08;;;;;;;4.10;2.20;;;;;;;16.81;35.57;99899.22;104260;1096;79725;-69
2021/05/12 00:11:14;;;;;;;3.70;2.30;;;;;;;16.75;35.69;99897.45;104269;1094;78410;-67
2021/05/12 00:13:20;;;;;;;4.90;2.50;;;;;;;16.67;35.82;99887.77;104299;1096;77960;-68
2021/05/12 00:15:27;;;;;;;5.80;2.60;;;;;;;16.59;35.92;99896.29;104304;1094;78018;-65
2021/05/12 00:17:34;;;;;;;8.90;2.40;;;;;;;16.54;36.10;99885.28;104265;1096;78386;-68
2021/05/12 00:19:41;;;;;;;4.20;2.40;;;;;;;16.50;36.13;99889.54;104317;1096;78874;-65
2021/05/12 00:21:52;;;;;;;4.10;2.30;;;;;;;16.44;36.20;99888.59;104295;1096;78630;-65
2021/05/12 00:23:59;;;;;;;4.10;2.20;;;;;;;16.37;36.18;99878.90;104272;1096;77413;-69
2021/05/12 00:26:06;;;;;;;4.80;2.10;;;;;;;16.32;36.56;99881.48;104253;1097;77591;-71
2021/05/12 00:28:12;;;;;;;5.50;2.40;;;;;;;16.29;36.52;99881.97;104306;1096;77095;-70
2021/05/12 00:30:22;;;;;;;5.10;2.40;;;;;;;16.25;36.59;99868.01;104309;1096;77734;-70
2021/05/12 00:32:28;;;;;;;4.30;2.20;;;;;;;16.21;36.54;99876.88;104225;1093;77225;-71
2021/05/12 00:34:33;;;;;;;6.10;2.70;;;;;;;16.18;36.48;99878.19;104301;1094;78802;-68
2021/05/12 00:36:40;;;;;;;7.40;2.80;;;;;;;16.18;36.70;99866.48;104284;1096;78705;-67
2021/05/12 00:38:45;;;;;;;5.10;2.40;;;;;;;16.18;36.57;99870.01;104307;1094;78483;-68
2021/05/12 00:40:52;;;;;;;5.80;2.20;;;;;;;16.17;36.59;99875.72;104319;1096;79598;-65
2021/05/12 00:42:58;;;;;;;4.00;2.00;;;;;;;16.13;36.71;99874.52;104279;1096;78370;-66
2021/05/12 00:45:10;;;;;;;7.20;2.70;;;;;;;16.11;36.47;99873.94;104274;1096;78590;-68
2021/05/12 00:47:16;;;;;;;4.80;2.50;;;;;;;16.06;36.45;99868.38;104296;1094;77400;-66
2021/05/12 00:49:24;;;;;;;5.40;2.10;;;;;;;16.06;36.45;99869.20;104265;1094;79797;-68
2021/05/12 00:51:30;;;;;;;4.90;2.20;;;;;;;16.04;36.56;99860.42;104320;1096;79149;-70
2021/05/12 00:53:37;;;;;;;6.00;2.40;;;;;;;16.03;36.41;99864.23;104313;1096;77166;-67
2021/05/12 00:55:43;;;;;;;4.90;2.50;;;;;;;16.05;36.38;99866.70;104322;1095;78428;-68
2021/05/12 00:57:49;;;;;;;5.00;2.30;;;;;;;16.04;36.40;99865.06;104277;1096;78093;-68
2021/05/12 00:59:55;;;;;;;6.70;2.40;;;;;;;16.02;36.44;99865.28;104290;1096;78480;-69
2021/05/12 01:02:02;;;;;;;7.90;2.60;;;;;;;15.98;36.28;99866.84;104308;1096;78052;-69
2021/05/12 01:04:09;;;;;;;4.50;2.10;;;;;;;16.02;36.34;99869.91;104319;1096;78555;-67
2021/05/12 01:06:26;;;;;;;5.00;2.40;;;;;;;16.00;36.31;99869.31;104292;1095;77883;-69
2021/05/12 01:08:32;;;;;;;6.00;2.60;;;;;;;16.04;36.21;99863.14;104324;1094;79036;-70
2021/05/12 01:10:38;;;;;;;6.40;2.90;;;;;;;16.05;36.22;99858.53;104270;1095;78865;-69
2021/05/12 01:12:44;;;;;;;4.60;2.10;;;;;;;16.05;36.19;99856.64;104296;1096;77428;-68
2021/05/12 01:14:50;;;;;;;5.00;2.50;;;;;;;16.02;36.34;99856.28;104278;1096;77742;-69
2021/05/12 01:16:56;;;;;;;5.10;2.10;;;;;;;16.01;36.16;99860.09;104298;1094;77059;-67
2021/05/12 01:19:02;;;;;;;5.70;2.40;;;;;;;16.06;36.18;99846.58;104308;1096;78647;-68
2021/05/12 01:21:11;;;;;;;5.60;2.20;;;;;;;16.02;36.02;99842.66;104269;1093;78325;-69
2021/05/12 01:23:18;;;;;;;6.30;2.50;;;;;;;15.99;36.22;99843.16;104302;1095;78651;-69
2021/05/12 01:25:24;;;;;;;4.80;2.10;;;;;;;15.94;36.24;99839.23;104272;1096;79036;-67
2021/05/12 01:27:30;;;;;;;5.10;2.50;;;;;;;15.93;36.12;99840.29;104278;1096;77993;-67
2021/05/12 01:29:36;;;;;;;4.90;2.40;;;;;;;15.89;36.14;99836.41;104265;1096;78029;-66
2021/05/12 01:31:44;;;;;;;5.50;1.80;;;;;;;15.81;36.38;99828.59;104258;1096;77800;-70
2021/05/12 01:33:53;;;;;;;3.60;2.10;;;;;;;15.82;36.29;99830.23;104294;1094;79272;-67
2021/05/12 01:36:00;;;;;;;4.80;2.10;;;;;;;15.85;36.10;99832.48;104273;1096;78455;-67
2021/05/12 01:38:06;;;;;;;6.10;2.30;;;;;;;15.85;36.22;99837.92;104237;1096;78818;-69
2021/05/12 01:40:15;;;;;;;6.00;2.30;;;;;;;15.85;36.21;99826.20;104311;1096;78645;-69
2021/05/12 01:42:21;;;;;;;7.50;2.90;;;;;;;15.82;36.25;99834.88;104308;1096;77377;-69
2021/05/12 01:44:27;;;;;;;3.90;2.50;;;;;;;15.80;36.27;99826.92;104278;1096;77100;-67
2021/05/12 01:46:33;;;;;;;5.80;2.90;;;;;;;15.77;36.23;99838.28;104276;1096;79997;-67
2021/05/12 01:48:41;;;;;;;6.50;2.30;;;;;;;15.75;36.39;99829.53;104266;1096;79448;-67
2021/05/12 01:50:48;;;;;;;6.10;2.80;;;;;;;15.73;36.59;99826.22;104305;1096;78790;-69
2021/05/12 01:52:55;;;;;;;5.20;2.70;;;;;;;15.71;36.38;99822.88;104266;1094;78155;-67
2021/05/12 01:55:01;;;;;;;5.60;2.30;;;;;;;15.65;36.45;99820.30;104261;1096;78393;-67
2021/05/12 01:57:08;;;;;;;5.70;2.50;;;;;;;15.61;36.64;99822.66;104293;1096;77159;-67
2021/05/12 01:59:14;;;;;;;5.40;2.00;;;;;;;15.56;36.78;99825.26;104286;1096;77997;-67
2021/05/12 02:01:20;;;;;;;6.90;2.10;;;;;;;15.53;36.91;99831.17;104274;1096;77177;-67
2021/05/12 02:03:26;;;;;;;6.10;2.80;;;;;;;15.50;36.85;99820.75;104294;1096;78039;-65
2021/05/12 02:05:33;;;;;;;3.90;2.20;;;;;;;15.46;36.95;99813.27;104290;1096;78913;-66
2021/05/12 02:07:39;;;;;;;4.70;2.30;;;;;;;15.43;36.99;99824.63;104321;1096;78631;-65
2021/05/12 02:09:52;;;;;;;4.90;2.00;;;;;;;15.38;37.06;99817.17;104264;1094;78137;-68
2021/05/12 02:11:58;;;;;;;3.30;2.00;;;;;;;15.38;36.99;99816.33;104303;1095;79443;-67
2021/05/12 02:14:05;;;;;;;4.70;2.00;;;;;;;15.33;37.20;99804.24;104268;1095;78960;-67
2021/05/12 02:16:10;;;;;;;5.60;2.00;;;;;;;15.31;37.05;99808.27;104282;1095;79251;-67
2021/05/12 02:18:16;;;;;;;3.80;2.20;;;;;;;15.29;37.31;99804.95;104274;1096;77663;-68
2021/05/12 02:20:25;;;;;;;6.30;2.30;;;;;;;15.26;37.37;99808.98;104222;1095;78966;-69
2021/05/12 02:22:31;;;;;;;4.10;2.30;;;;;;;15.28;37.36;99812.28;104238;1096;78531;-68
2021/05/12 02:24:36;;;;;;;6.00;2.40;;;;;;;15.22;37.38;99806.94;104292;1096;78605;-68
2021/05/12 02:26:42;;;;;;;7.00;2.50;;;;;;;15.23;37.49;99814.05;104277;1094;79532;-68
2021/05/12 02:28:47;;;;;;;6.00;2.10;;;;;;;15.17;37.59;99818.53;104286;1096;78094;-68
2021/05/12 02:30:54;;;;;;;3.30;2.00;;;;;;;15.13;37.51;99809.20;104271;1094;78672;-66
2021/05/12 02:33:00;;;;;;;4.10;2.50;;;;;;;15.11;37.56;99805.86;104264;1096;77763;-64
2021/05/12 02:35:09;;;;;;;5.60;2.20;;;;;;;15.07;37.66;99810.13;104259;1095;78642;-68
2021/05/12 02:37:15;;;;;;;5.20;2.40;;;;;;;15.07;37.88;99814.73;104305;1096;77348;-67
2021/05/12 02:39:21;;;;;;;3.70;1.90;;;;;;;15.06;38.06;99808.45;104268;1096;78729;-67
2021/05/12 02:41:29;;;;;;;4.90;1.90;;;;;;;15.08;37.94;99819.92;104280;1095;79008;-68
2021/05/12 02:43:35;;;;;;;4.00;2.10;;;;;;;15.08;37.96;99813.67;104287;1096;77875;-67
2021/05/12 02:45:40;;;;;;;6.00;2.50;;;;;;;15.07;37.90;99814.73;104312;1094;78351;-68
2021/05/12 02:47:57;;;;;;;3.10;2.60;;;;;;;15.03;37.85;99818.95;104302;1096;79300;-68
2021/05/12 02:50:05;;;;;;;4.20;2.00;;;;;;;14.98;38.20;99821.55;104253;1094;78200;-66
2021/05/12 02:52:11;;;;;;;3.80;2.00;;;;;;;14.95;38.13;99813.85;104332;1094;79015;-66
2021/05/12 02:54:20;;;;;;;5.10;2.40;;;;;;;14.94;38.36;99814.93;104302;1096;79923;-68
2021/05/12 02:56:28;;;;;;;3.60;1.90;;;;;;;14.93;38.26;99813.27;104265;1096;78845;-68
2021/05/12 02:58:34;;;;;;;4.80;2.30;;;;;;;14.91;38.33;99813.51;104287;1096;77041;-68
2021/05/12 03:00:43;;;;;;;5.50;2.20;;;;;;;14.89;38.49;99814.80;104309;1095;78896;-66
2021/05/12 03:02:49;;;;;;;3.20;2.10;;;;;;;14.88;38.59;99811.25;104324;1095;77201;-66
2021/05/12 03:04:56;;;;;;;6.20;2.10;;;;;;;14.88;38.47;99810.41;104297;1095;78340;-69
2021/05/12 03:07:02;;;;;;;6.10;2.10;;;;;;;14.91;38.58;99808.07;104270;1096;77436;-67
2021/05/12 03:09:09;;;;;;;4.40;2.40;;;;;;;14.94;38.58;99809.49;104303;1095;79059;-68
2021/05/12 03:11:15;;;;;;;4.70;2.10;;;;;;;14.98;38.54;99813.39;104340;1095;78411;-68
2021/05/12 03:13:20;;;;;;;4.10;2.10;;;;;;;14.98;38.66;99813.39;104309;1094;79484;-67
2021/05/12 03:15:27;;;;;;;3.70;2.00;;;;;;;14.99;38.61;99810.45;104281;1095;77378;-66
2021/05/12 03:17:33;;;;;;;9.10;2.40;;;;;;;15.01;38.57;99810.21;104303;1096;79784;-65
2021/05/12 03:19:42;;;;;;;5.10;2.10;;;;;;;15.03;38.65;99811.63;104253;1096;79841;-69
2021/05/12 03:21:47;;;;;;;5.70;2.10;;;;;;;15.02;38.62;99801.83;104294;1096;77745;-68
2021/05/12 03:23:54;;;;;;;4.90;2.20;;;;;;;15.02;38.69;99801.00;104307;1096;78664;-68
2021/05/12 03:26:00;;;;;;;6.60;2.20;;;;;;;15.04;38.61;99804.31;104275;1095;78601;-68
2021/05/12 03:28:06;;;;;;;4.50;2.70;;;;;;;15.07;38.61;99815.56;104266;1094;79597;-68
2021/05/12 03:30:18;;;;;;;4.80;2.20;;;;;;;15.09;38.78;99809.88;104254;1096;76874;-68
2021/05/12 03:32:23;;;;;;;4.70;2.10;;;;;;;15.15;38.73;99807.06;104285;1095;77203;-68
2021/05/12 03:34:29;;;;;;;4.00;2.00;;;;;;;15.19;38.71;99804.72;104260;1096;78391;-66
2021/05/12 03:36:38;;;;;;;5.30;1.90;;;;;;;15.33;38.60;99814.30;104287;1096;79257;-66
2021/05/12 03:38:43;;;;;;;7.00;2.50;;;;;;;16.06;38.06;99809.27;104277;1096;77055;-65
2021/05/12 03:40:49;;;;;;;6.40;1.80;;;;;;;17.14;37.53;99801.05;104291;1096;77327;-66
2021/05/12 03:42:56;;;;;;;5.50;2.40;;;;;;;18.08;36.68;99800.11;104275;1096;78028;-66
2021/05/12 03:45:02;;;;;;;3.10;2.00;;;;;;;19.02;35.66;99797.14;104267;1096;77691;-68
2021/05/12 03:47:08;;;;;;;6.70;2.60;;;;;;;19.95;34.27;99796.55;104291;1094;78805;-68
2021/05/12 03:49:13;;;;;;;5.00;2.20;;;;;;;20.93;33.25;99795.59;104308;1097;79808;-69
2021/05/12 03:51:22;;;;;;;5.00;2.40;;;;;;;21.70;32.61;99791.81;104263;1096;78864;-69
2021/05/12 03:53:28;;;;;;;3.90;2.10;;;;;;;22.40;30.96;99798.28;104290;1096;77720;-69
2021/05/12 03:55:34;;;;;;;5.20;2.60;;;;;;;23.19;30.36;99792.63;104290;1094;79858;-68
2021/05/12 03:57:41;;;;;;;4.80;2.40;;;;;;;23.51;28.68;99787.47;104331;1096;78321;-69
2021/05/12 03:59:46;;;;;;;4.30;2.00;;;;;;;23.55;28.13;99798.72;104305;1094;77937;-68
2021/05/12 04:01:53;;;;;;;4.50;2.30;;;;;;;24.05;28.26;99799.07;104304;1096;78824;-68
2021/05/12 04:04:04;;;;;;;7.40;2.30;;;;;;;24.88;27.31;99784.02;104277;1096;78489;-67
2021/05/12 04:06:10;;;;;;;6.00;2.30;;;;;;;25.10;27.01;99784.24;104284;1096;77339;-68
2021/05/12 04:08:16;;;;;;;5.00;2.30;;;;;;;25.45;26.09;99796.67;104296;1096;77256;-69
2021/05/12 04:10:23;;;;;;;4.20;2.10;;;;;;;25.76;25.70;99793.13;104259;1096;78409;-69
2021/05/12 04:12:28;;;;;;;3.90;2.30;;;;;;;25.64;25.64;99795.55;104291;1096;77662;-69
2021/05/12 04:14:34;;;;;;;5.70;2.20;;;;;;;25.13;25.15;99798.27;104282;1096;78793;-66
2021/05/12 04:16:40;;;;;;;6.90;2.40;;;;;;;24.63;25.57;99791.51;104263;1094;79364;-66
2021/05/12 04:18:46;;;;;;;4.40;1.90;;;;;;;23.92;26.20;99796.18;104285;1096;79234;-66
2021/05/12 04:20:51;;;;;;;4.80;2.20;;;;;;;23.04;26.41;99795.51;104305;1094;78300;-68
2021/05/12 04:22:57;;;;;;;3.70;2.10;;;;;;;21.82;27.05;99810.78;104287;1097;78936;-68
2021/05/12 04:25:03;;;;;;;3.40;1.80;;;;;;;21.40;27.88;99800.91;104247;1096;78226;-69
2021/05/12 04:27:09;;;;;;;7.20;2.10;;;;;;;21.36;27.99;99791.58;104304;1095;78508;-69
2021/05/12 04:29:15;;;;;;;2.90;1.80;;;;;;;21.07;28.65;99794.01;104260;1096;81017;-66
2021/05/12 04:31:20;;;;;;;5.10;2.00;;;;;;;21.23;28.97;99792.13;104291;1096;78484;-67
2021/05/12 04:33:26;;;;;;;4.20;2.00;;;;;;;21.60;28.85;99802.83;104291;1094;78772;-66
2021/05/12 04:35:32;;;;;;;6.30;2.10;;;;;;;22.40;28.32;99796.36;104330;1096;79800;-68
2021/05/12 04:37:38;;;;;;;4.80;2.00;;;;;;;23.96;28.26;99789.77;104291;1096;79609;-67
2021/05/12 04:39:44;;;;;;;7.20;2.40;;;;;;;25.26;26.64;99784.81;104555;1093;79305;-68
2021/05/12 04:41:50;;;;;;;5.80;2.40;;;;;;;26.15;25.47;99784.38;104280;1093;78749;-69
2021/05/12 04:43:56;;;;;;;4.70;2.20;;;;;;;27.05;24.79;99780.83;104298;1093;76893;-68
2021/05/12 04:46:02;;;;;;;8.90;2.40;;;;;;;27.52;23.64;99780.23;104316;1093;78753;-66
2021/05/12 04:48:09;;;;;;;3.40;1.90;;;;;;;28.67;23.55;99780.19;104337;1093;78491;-66
2021/05/12 04:50:15;;;;;;;4.70;2.00;;;;;;;28.43;20.99;99783.34;104321;1093;78362;-66
2021/05/12 04:52:20;;;;;;;3.00;2.10;;;;;;;28.69;22.17;99791.80;104293;1093;79335;-66
2021/05/12 04:54:26;;;;;;;4.50;2.00;;;;;;;29.65;22.67;99774.81;104315;1093;79443;-69
2021/05/12 04:56:32;;;;;;;5.50;2.20;;;;;;;29.86;21.30;99781.34;104342;1093;78462;-69
2021/05/12 04:58:38;;;;;;;4.10;1.90;;;;;;;30.69;21.41;99782.48;104306;1093;78015;-69
2021/05/12 05:00:44;;;;;;;7.00;2.30;;;;;;;31.29;20.78;99803.58;104511;1093;78266;-69
2021/05/12 05:02:49;;;;;;;5.20;2.20;;;;;;;31.44;19.94;99791.80;104291;1093;78793;-69
2021/05/12 05:04:55;;;;;;;6.80;2.30;;;;;;;31.42;19.63;99786.57;104278;1094;79801;-66
2021/05/12 05:07:01;;;;;;;3.70;2.10;;;;;;;31.13;18.02;99794.19;104292;1093;78147;-66
2021/05/12 05:09:08;;;;;;;4.70;2.20;;;;;;;31.52;18.61;99788.96;104304;1091;78937;-69
2021/05/12 05:11:14;;;;;;;4.30;2.00;;;;;;;31.46;19.14;99789.47;104321;1093;78570;-69
2021/05/12 05:13:20;;;;;;;5.90;2.00;;;;;;;32.03;18.65;99784.00;104319;1093;78142;-69
2021/05/12 05:15:26;;;;;;;6.90;2.70;;;;;;;32.67;18.63;99790.60;104263;1093;79096;-69
2021/05/12 05:17:33;;;;;;;5.00;2.10;;;;;;;32.34;18.23;99780.66;104270;1093;78936;-70
2021/05/12 05:19:39;;;;;;;3.90;2.10;;;;;;;32.66;17.42;99782.58;104310;1093;78736;-66
2021/05/12 05:21:44;;;;;;;5.70;2.20;;;;;;;32.59;17.62;99782.33;104317;1093;78270;-66
2021/05/12 05:23:53;;;;;;;7.00;2.10;;;;;;;32.46;17.12;99792.69;104280;1093;77631;-66
2021/05/12 05:25:59;;;;;;;3.90;2.00;;;;;;;32.80;17.71;99793.40;104268;1093;78866;-67
2021/05/12 05:28:05;;;;;;;5.80;2.40;;;;;;;33.05;17.66;99786.56;104306;1093;78404;-66
2021/05/12 05:30:16;;;;;;;4.30;2.00;;;;;;;33.82;17.68;99793.67;104288;1093;79067;-68
2021/05/12 05:32:22;;;;;;;5.40;2.90;;;;;;;33.27;16.96;99779.68;104293;1093;78338;-69
2021/05/12 05:34:27;;;;;;;8.70;2.60;;;;;;;33.27;17.07;99782.48;104317;1093;78445;-69
2021/05/12 05:36:33;;;;;;;3.90;2.40;;;;;;;33.39;16.75;99793.63;104293;1093;78511;-69
2021/05/12 05:38:39;;;;;;;4.90;2.60;;;;;;;32.67;16.76;99793.40;104282;1093;78401;-69
2021/05/12 05:40:47;;;;;;;5.90;2.00;;;;;;;32.85;17.16;99791.17;104294;1093;78773;-69
2021/05/12 05:42:59;;;;;;;4.40;2.10;;;;;;;33.09;16.97;99793.13;104295;1093;79667;-69
2021/05/12 05:45:08;;;;;;;5.80;2.30;;;;;;;33.47;16.71;99784.25;104295;1093;79572;-66
2021/05/12 05:47:13;;;;;;;9.30;2.20;;;;;;;33.95;16.55;99786.85;104325;1092;77423;-66
2021/05/12 05:49:19;;;;;;;6.60;2.50;;;;;;;34.16;16.04;99790.23;104295;1093;78723;-69
2021/05/12 05:51:25;;;;;;;4.80;2.00;;;;;;;34.36;16.74;99786.33;104303;1093;80019;-69
2021/05/12 05:53:31;;;;;;;6.80;2.20;;;;;;;34.61;15.98;99783.38;104272;1093;78577;-71
2021/05/12 05:55:39;;;;;;;6.50;2.00;;;;;;;34.08;15.88;99793.22;104262;1093;79772;-66
2021/05/12 05:57:45;;;;;;;4.00;2.00;;;;;;;33.79;16.18;99794.39;104309;1093;79589;-67
2021/05/12 05:59:51;;;;;;;5.40;2.30;;;;;;;33.27;16.20;99786.07;104277;1093;78308;-66
2021/05/12 06:01:57;;;;;;;6.20;2.50;;;;;;;33.61;16.15;99787.49;104304;1093;79446;-66
2021/05/12 06:04:04;;;;;;;5.60;2.10;;;;;;;33.31;16.03;99784.20;104345;1093;78805;-67
2021/05/12 06:06:10;;;;;;;4.70;2.10;;;;;;;33.49;16.44;99790.30;104270;1091;79162;-66
2021/05/12 06:08:19;;;;;;;5.30;2.10;;;;;;;33.29;16.39;99782.93;104128;1093;76852;-66
2021/05/12 06:10:25;;;;;;;7.50;2.00;;;;;;;33.83;16.56;99779.33;104253;1093;78103;-66
2021/05/12 06:12:31;;;;;;;7.10;2.40;;;;;;;34.12;16.07;99774.48;104282;1092;78391;-67
2021/05/12 06:14:36;;;;;;;5.90;2.30;;;;;;;34.27;16.09;99777.30;104289;1093;78546;-62
2021/05/12 06:16:45;;;;;;;5.90;2.30;;;;;;;33.76;16.23;99781.13;104286;1093;78474;-63
2021/05/12 06:18:58;;;;;;;5.10;2.50;;;;;;;32.90;16.19;99781.72;104360;1096;77050;-72
2021/05/12 06:21:07;;;;;;;7.50;2.40;;;;;;;33.10;16.24;99770.38;104301;1097;78757;-71
2021/05/12 06:23:15;;;;;;;5.20;1.80;;;;;;;33.17;16.39;99776.20;104295;1096;78018;-73
2021/05/12 06:25:23;;;;;;;5.70;2.10;;;;;;;32.76;16.44;99782.09;104376;1095;78654;-74
2021/05/12 06:30:29;;;;;;;5.50;2.10;;;;;;;32.93;16.60;99767.02;104185;1094;77716;-64
2021/05/12 06:32:47;;;;;;;6.90;2.60;;;;;;;33.09;15.88;99760.36;104299;1096;76977;-62
2021/05/12 06:34:55;;;;;;;6.00;2.20;;;;;;;32.75;16.48;99769.25;104314;1096;78101;-63
2021/05/12 06:37:01;;;;;;;3.60;1.80;;;;;;;32.78;16.83;99765.75;104314;1096;78466;-60
2021/05/12 06:39:08;;;;;;;4.20;2.30;;;;;;;33.44;16.90;99766.17;104272;1096;78179;-60
2021/05/12 06:41:14;;;;;;;6.10;2.00;;;;;;;33.99;16.26;99764.50;104310;1094;77570;-61
2021/05/12 06:43:20;;;;;;;6.30;2.20;;;;;;;34.36;15.52;99771.52;104238;1096;78885;-61
2021/05/12 06:45:28;;;;;;;7.50;2.00;;;;;;;33.93;15.30;99763.95;104300;1095;78609;-61
2021/05/12 06:47:34;;;;;;;5.10;2.10;;;;;;;34.27;16.09;99763.28;104268;1096;78078;-62
2021/05/12 06:49:40;;;;;;;3.70;1.90;;;;;;;34.39;15.70;99759.58;104272;1095;78245;-66
2021/05/12 06:51:46;;;;;;;4.80;2.10;;;;;;;34.37;16.01;99762.72;104332;1096;77217;-66
2021/05/12 06:53:52;;;;;;;4.20;2.10;;;;;;;34.77;15.26;99759.72;104275;1094;78024;-66
2021/05/12 06:55:58;;;;;;;5.30;1.90;;;;;;;34.65;15.55;99757.02;104291;1096;77348;-66
2021/05/12 06:58:06;;;;;;;6.30;2.00;;;;;;;34.57;15.34;99751.59;104319;1096;77952;-67
2021/05/12 07:00:15;;;;;;;7.90;2.20;;;;;;;34.76;15.79;99752.46;104290;1096;79024;-66
2021/05/12 07:02:21;;;;;;;3.00;1.80;;;;;;;34.84;15.96;99759.05;104319;1096;78691;-66
2021/05/12 07:04:27;;;;;;;3.40;2.40;;;;;;;35.03;15.43;99756.27;104271;1096;77819;-66
2021/05/12 07:06:32;;;;;;;4.70;2.20;;;;;;;34.73;15.26;99755.18;104231;1096;79183;-66
2021/05/12 07:08:38;;;;;;;2.80;1.60;;;;;;;34.53;15.29;99761.91;104282;1094;79846;-66
2021/05/12 07:10:47;;;;;;;3.20;1.70;;;;;;;34.21;15.22;99753.51;104258;1096;79589;-66
2021/05/12 07:12:54;;;;;;;3.70;1.80;;;;;;;34.38;15.70;99744.73;104301;1096;77129;-66
2021/05/12 07:15:01;;;;;;;4.20;2.20;;;;;;;34.77;15.67;99753.28;104316;1096;77949;-67
2021/05/12 07:17:07;;;;;;;5.80;1.80;;;;;;;34.87;16.20;99756.33;104286;1096;77121;-67
2021/05/12 07:19:12;;;;;;;5.70;1.90;;;;;;;34.68;14.93;99745.06;104288;1094;78391;-67
2021/05/12 07:21:18;;;;;;;3.10;1.60;;;;;;;34.36;15.57;99747.06;104315;1096;79141;-67
2021/05/12 07:23:26;;;;;;;4.80;1.50;;;;;;;34.78;15.58;99738.05;104300;1096;78268;-67
2021/05/12 07:25:36;;;;;;;3.50;1.70;;;;;;;34.83;15.02;99749.02;104330;1096;77438;-67
2021/05/12 07:27:43;;;;;;;3.70;1.40;;;;;;;34.43;15.58;99742.80;104275;1096;78787;-66
2021/05/12 07:29:48;;;;;;;3.10;2.30;;;;;;;34.38;15.50;99732.69;104283;1096;78579;-65
2021/05/12 07:31:54;;;;;;;3.70;1.40;;;;;;;34.34;15.81;99738.20;104266;1096;77769;-66
2021/05/12 07:34:00;;;;;;;4.10;1.50;;;;;;;34.71;15.84;99744.33;104297;1096;78683;-66
2021/05/12 07:36:07;;;;;;;3.40;1.20;;;;;;;34.03;16.30;99738.20;104289;1095;77849;-67
2021/05/12 07:38:13;;;;;;;5.50;1.70;;;;;;;35.09;16.70;99732.36;104279;1096;79115;-67
2021/05/12 07:40:22;;;;;;;3.80;1.50;;;;;;;35.39;15.71;99747.44;104261;1096;78500;-67
2021/05/12 07:42:35;;;;;;;7.40;1.50;;;;;;;35.21;16.40;99745.45;104252;1095;79405;-67
2021/05/12 07:44:43;;;;;;;5.10;2.00;;;;;;;34.97;15.36;99747.31;104218;1096;80818;-66
2021/05/12 07:46:51;;;;;;;3.50;1.40;;;;;;;34.43;15.88;99746.43;104506;1091;78764;-66
2021/05/12 07:49:22;;;;;;;4.80;1.70;;;;;;;34.27;16.16;99754.87;104236;1093;78939;-66
2021/05/12 07:51:43;;;;;;;;;;;;;;;34.54;16.87;99738.27;104213;1096;79789;-65
2021/05/12 07:53:53;;;;;;;4.40;1.50;;;;;;;34.72;16.59;99733.92;104275;1093;77784;-66
2021/05/12 07:55:58;;;;;;;3.80;1.70;;;;;;;34.59;16.87;99736.02;104298;1093;77446;-66
2021/05/12 07:58:05;;;;;;;4.10;1.50;;;;;;;34.81;16.24;99737.32;104302;1093;79868;-66
2021/05/12 08:00:14;;;;;;;3.60;1.50;;;;;;;35.07;15.68;99745.97;104251;1093;77565;-67
2021/05/12 08:02:23;;;;;;;4.40;1.60;;;;;;;35.19;15.67;99734.58;104297;1093;78581;-66
2021/05/12 08:04:29;;;;;;;4.20;1.50;;;;;;;35.04;16.23;99746.67;104309;1092;78192;-66
2021/05/12 08:06:35;;;;;;;3.20;1.50;;;;;;;34.43;16.25;99728.78;104288;1091;79476;-66
2021/05/12 08:08:43;;;;;;;4.70;1.60;;;;;;;34.56;16.65;99733.91;104300;1093;79087;-68
2021/05/12 08:10:50;;;;;;;5.20;1.50;;;;;;;34.13;16.45;99740.48;104263;1093;78617;-67
2021/05/12 08:12:55;;;;;;;2.50;1.40;;;;;;;34.24;16.85;99740.75;104275;1093;77052;-67
2021/05/12 08:15:07;;;;;;;5.50;1.60;;;;;;;33.84;16.60;99732.50;104293;1093;78236;-67
2021/05/12 08:17:12;;;;;;;5.40;1.50;;;;;;;34.36;16.90;99741.45;104345;1093;77551;-69
2021/05/12 08:19:19;;;;;;;5.10;1.40;;;;;;;34.42;16.68;99736.38;104278;1093;79483;-67
2021/05/12 08:21:28;;;;;;;4.20;1.40;;;;;;;34.14;16.54;99744.11;104310;1093;78460;-68
2021/05/12 08:23:34;;;;;;;4.00;1.60;;;;;;;33.86;16.83;99734.92;104317;1093;79125;-66
2021/05/12 08:25:44;;;;;;;3.50;1.80;;;;;;;34.07;16.79;99741.08;104303;1093;78851;-66
2021/05/12 08:27:53;;;;;;;2.90;1.90;;;;;;;34.14;17.08;99732.89;104247;1093;79481;-66
2021/05/12 08:30:02;;;;;;;5.30;1.40;;;;;;;34.52;16.50;99737.83;104264;1093;77041;-66
2021/05/12 08:32:10;;;;;;;2.50;1.50;;;;;;;34.13;16.05;99739.66;104288;1093;77266;-66
2021/05/12 08:34:18;;;;;;;2.70;1.60;;;;;;;33.81;16.85;99717.22;104299;1093;78823;-66
2021/05/12 08:36:25;;;;;;;2.70;1.50;;;;;;;34.05;17.27;99721.01;104259;1093;79002;-65
2021/05/12 08:38:32;;;;;;;4.60;1.60;;;;;;;34.49;16.68;99719.73;104328;1093;78591;-65
2021/05/12 08:40:48;;;;;;;5.30;1.50;;;;;;;34.52;16.69;99723.80;104284;1092;78533;-65
2021/05/12 08:42:55;;;;;;;4.20;1.40;;;;;;;34.47;16.14;99724.90;104278;1093;78663;-64
2021/05/12 08:45:01;;;;;;;5.90;1.40;;;;;;;34.21;17.22;99714.25;104320;1093;78684;-65
2021/05/12 08:47:09;;;;;;;3.50;1.60;;;;;;;34.54;16.33;99722.25;104267;1093;79410;-67
2021/05/12 08:49:18;;;;;;;2.20;1.20;;;;;;;34.30;16.66;99716.86;104270;1093;78316;-66
2021/05/12 08:51:26;;;;;;;4.50;1.20;;;;;;;34.94;16.99;99719.19;104259;1093;77752;-65
2021/05/12 08:53:32;;;;;;;3.10;1.30;;;;;;;34.78;16.24;99716.41;104295;1093;78514;-65
2021/05/12 08:55:38;;;;;;;3.00;1.80;;;;;;;34.11;16.89;99709.20;104307;1093;79340;-65
2021/05/12 08:57:44;;;;;;;2.30;1.30;;;;;;;34.06;17.05;99712.25;104270;1093;77799;-67
2021/05/12 08:59:52;;;;;;;2.60;1.40;;;;;;;33.86;16.96;99707.72;104277;1093;79258;-67
2021/05/12 09:01:59;;;;;;;3.90;1.50;;;;;;;34.00;17.58;99698.86;104252;1093;77051;-66
2021/05/12 09:04:07;;;;;;;4.50;1.60;;;;;;;34.43;17.37;99697.92;104273;1091;78926;-65
2021/05/12 09:06:14;;;;;;;3.90;1.60;;;;;;;34.16;16.94;99711.72;104305;1093;77641;-67
2021/05/12 09:08:25;;;;;;;4.70;1.70;;;;;;;33.45;17.17;99703.39;104331;1093;79711;-66
2021/05/12 09:10:34;;;;;;;4.00;1.50;;;;;;;33.56;17.18;99698.89;104362;1096;78252;-66
2021/05/12 09:12:48;;;;;;;3.60;1.80;;;;;;;33.49;17.76;99701.48;104285;1097;76980;-64
2021/05/12 09:14:57;;;;;;;4.20;1.60;;;;;;;33.46;17.74;99693.00;104263;1096;78811;-66
2021/05/12 09:17:03;;;;;;;6.10;1.90;;;;;;;33.31;18.25;99691.79;104269;1097;78455;-67
2021/05/12 09:19:13;;;;;;;5.00;1.90;;;;;;;33.14;18.09;99692.09;104311;1096;78713;-67
2021/05/12 09:21:18;;;;;;;5.00;1.60;;;;;;;32.58;18.53;99692.00;104283;1096;78906;-66
2021/05/12 09:23:40;;;;;;;4.20;1.80;;;;;;;32.34;18.63;99691.19;104264;1096;77836;-66
2021/05/12 09:25:58;;;;;;;4.10;1.30;;;;;;;31.72;19.09;99689.52;104205;1096;79894;-67
2021/05/12 09:28:15;;;;;;;7.20;1.90;;;;;;;31.38;19.60;99682.30;104263;1096;79082;-66
2021/05/12 09:30:25;;;;;;;4.30;1.60;;;;;;;31.13;19.51;99690.92;104277;1096;79543;-66
2021/05/12 09:32:45;;;;;;;4.80;1.40;;;;;;;30.92;19.62;99686.20;104273;1096;78876;-66
2021/05/12 09:34:58;;;;;;;2.80;1.20;;;;;;;30.85;20.31;99691.47;104328;1096;78412;-66
2021/05/12 09:37:28;;;;;;;2.60;1.20;;;;;;;30.52;20.68;99684.99;104259;1097;78951;-66
2021/05/12 09:39:51;;;;;;;6.50;1.40;;;;;;;30.10;20.22;99694.41;104237;1096;79451;-65
2021/05/12 09:41:57;;;;;;;4.40;1.20;;;;;;;29.71;20.76;99688.00;104304;1094;78260;-64
2021/05/12 09:44:05;;;;;;;3.30;1.30;;;;;;;29.39;21.07;99688.59;104255;1096;78208;-66
2021/05/12 09:46:32;;;;;;;8.60;1.40;;;;;;;28.90;21.70;99681.56;104294;1097;77754;-66
2021/05/12 09:48:38;;;;;;;4.30;1.20;;;;;;;28.81;22.48;99668.83;104312;1097;78291;-66
2021/05/12 09:50:44;;;;;;;7.50;1.40;;;;;;;28.62;22.31;99691.36;104396;1093;77166;-67
2021/05/12 09:52:55;;;;;;;2.50;1.10;;;;;;;28.51;22.65;99688.05;104242;1093;76952;-67
2021/05/12 09:55:08;;;;;;;4.00;1.30;;;;;;;28.58;22.70;99696.74;104291;1093;78479;-64
2021/05/12 09:57:13;;;;;;;;;;;;;;;28.75;22.55;99695.15;104349;1093;78186;-67